sensor_id;sensor_type;location;lat;lon;timestamp;P1;durP1;ratioP1;P2;durP2;ratioP2
4023;SDS011;2026;51.002;13.668;2023-07-31T00:04:28;3.57;;;2.07;;
4023;SDS011;2026;51.002;13.668;2023-07-31T00:09:32;5.93;;;2.20;;
4023;SDS011;2026;51.002;13.668;2023-07-31T00:14:35;2.70;;;2.00;;
4023;SDS011;2026;51.002;13.668;2023-07-31T00:19:37;3.30;;;2.10;;
4023;SDS011;2026;51.002;13.668;2023-07-31T00:24:42;4.00;;;2.70;;
4023;SDS011;2026;51.002;13.668;2023-07-31T00:29:44;5.90;;;2.20;;
4023;SDS011;2026;51.002;13.668;2023-07-31T00:34:47;5.07;;;2.00;;
4023;SDS011;2026;51.002;13.668;2023-07-31T00:39:51;4.03;;;2.17;;
4023;SDS011;2026;51.002;13.668;2023-07-31T00:44:55;9.03;;;2.53;;
4023;SDS011;2026;51.002;13.668;2023-07-31T00:49:58;3.70;;;2.30;;
4023;SDS011;2026;51.002;13.668;2023-07-31T00:55:02;3.67;;;1.90;;
4023;SDS011;2026;51.002;13.668;2023-07-31T01:00:05;11.10;;;2.50;;
4023;SDS011;2026;51.002;13.668;2023-07-31T01:05:08;4.17;;;2.20;;
4023;SDS011;2026;51.002;13.668;2023-07-31T01:10:15;3.27;;;2.13;;
4023;SDS011;2026;51.002;13.668;2023-07-31T01:15:19;3.83;;;2.13;;
4023;SDS011;2026;51.002;13.668;2023-07-31T01:20:23;4.80;;;2.57;;
4023;SDS011;2026;51.002;13.668;2023-07-31T01:25:34;3.60;;;2.27;;
4023;SDS011;2026;51.002;13.668;2023-07-31T01:30:42;3.70;;;2.20;;
4023;SDS011;2026;51.002;13.668;2023-07-31T01:35:46;4.67;;;2.37;;
4023;SDS011;2026;51.002;13.668;2023-07-31T01:40:51;7.40;;;2.30;;
4023;SDS011;2026;51.002;13.668;2023-07-31T01:45:55;6.53;;;2.30;;
4023;SDS011;2026;51.002;13.668;2023-07-31T01:51:00;5.50;;;2.80;;
4023;SDS011;2026;51.002;13.668;2023-07-31T01:56:02;4.33;;;2.40;;
4023;SDS011;2026;51.002;13.668;2023-07-31T02:01:08;4.60;;;2.47;;
4023;SDS011;2026;51.002;13.668;2023-07-31T02:06:11;4.50;;;2.10;;
4023;SDS011;2026;51.002;13.668;2023-07-31T02:11:14;5.10;;;2.50;;
4023;SDS011;2026;51.002;13.668;2023-07-31T02:16:18;4.00;;;2.13;;
4023;SDS011;2026;51.002;13.668;2023-07-31T02:21:21;4.80;;;2.30;;
4023;SDS011;2026;51.002;13.668;2023-07-31T02:26:23;6.10;;;2.30;;
4023;SDS011;2026;51.002;13.668;2023-07-31T02:31:27;2.13;;;1.90;;
4023;SDS011;2026;51.002;13.668;2023-07-31T02:36:30;5.33;;;2.37;;
4023;SDS011;2026;51.002;13.668;2023-07-31T02:41:33;3.83;;;2.00;;
4023;SDS011;2026;51.002;13.668;2023-07-31T02:46:37;5.20;;;2.30;;
4023;SDS011;2026;51.002;13.668;2023-07-31T02:51:40;3.77;;;2.50;;
4023;SDS011;2026;51.002;13.668;2023-07-31T02:56:43;4.07;;;2.50;;
4023;SDS011;2026;51.002;13.668;2023-07-31T03:01:47;3.33;;;2.13;;
4023;SDS011;2026;51.002;13.668;2023-07-31T03:06:50;4.13;;;2.27;;
4023;SDS011;2026;51.002;13.668;2023-07-31T03:11:53;5.20;;;2.30;;
4023;SDS011;2026;51.002;13.668;2023-07-31T03:16:57;4.97;;;2.20;;
4023;SDS011;2026;51.002;13.668;2023-07-31T03:22:00;3.93;;;2.23;;
4023;SDS011;2026;51.002;13.668;2023-07-31T03:27:03;4.73;;;2.30;;
4023;SDS011;2026;51.002;13.668;2023-07-31T03:32:07;2.77;;;1.80;;
4023;SDS011;2026;51.002;13.668;2023-07-31T03:37:10;2.83;;;1.70;;
4023;SDS011;2026;51.002;13.668;2023-07-31T03:42:13;5.30;;;2.30;;
4023;SDS011;2026;51.002;13.668;2023-07-31T03:47:17;3.63;;;2.40;;
4023;SDS011;2026;51.002;13.668;2023-07-31T03:52:20;6.00;;;2.73;;
4023;SDS011;2026;51.002;13.668;2023-07-31T03:57:22;3.77;;;2.13;;
4023;SDS011;2026;51.002;13.668;2023-07-31T04:02:27;5.40;;;3.10;;
4023;SDS011;2026;51.002;13.668;2023-07-31T04:07:29;4.10;;;2.90;;
4023;SDS011;2026;51.002;13.668;2023-07-31T04:12:32;7.43;;;2.93;;
4023;SDS011;2026;51.002;13.668;2023-07-31T04:17:36;6.13;;;3.70;;
4023;SDS011;2026;51.002;13.668;2023-07-31T04:22:39;4.70;;;2.77;;
4023;SDS011;2026;51.002;13.668;2023-07-31T04:27:42;6.83;;;3.30;;
4023;SDS011;2026;51.002;13.668;2023-07-31T04:32:46;4.00;;;3.07;;
4023;SDS011;2026;51.002;13.668;2023-07-31T04:37:48;8.93;;;3.00;;
4023;SDS011;2026;51.002;13.668;2023-07-31T04:42:51;3.07;;;2.77;;
4023;SDS011;2026;51.002;13.668;2023-07-31T04:47:55;7.70;;;3.30;;
4023;SDS011;2026;51.002;13.668;2023-07-31T04:52:58;3.70;;;2.83;;
4023;SDS011;2026;51.002;13.668;2023-07-31T04:58:01;5.90;;;3.43;;
4023;SDS011;2026;51.002;13.668;2023-07-31T05:03:05;3.83;;;3.10;;
4023;SDS011;2026;51.002;13.668;2023-07-31T05:08:08;4.30;;;3.60;;
4023;SDS011;2026;51.002;13.668;2023-07-31T05:13:11;3.57;;;2.67;;
4023;SDS011;2026;51.002;13.668;2023-07-31T05:18:15;5.10;;;2.80;;
4023;SDS011;2026;51.002;13.668;2023-07-31T05:23:18;6.53;;;3.17;;
4023;SDS011;2026;51.002;13.668;2023-07-31T05:28:20;4.50;;;2.90;;
4023;SDS011;2026;51.002;13.668;2023-07-31T05:33:25;3.57;;;2.83;;
4023;SDS011;2026;51.002;13.668;2023-07-31T05:38:27;7.87;;;3.20;;
4023;SDS011;2026;51.002;13.668;2023-07-31T05:43:31;4.17;;;2.77;;
4023;SDS011;2026;51.002;13.668;2023-07-31T05:48:35;4.47;;;2.90;;
4023;SDS011;2026;51.002;13.668;2023-07-31T05:53:38;5.03;;;3.33;;
4023;SDS011;2026;51.002;13.668;2023-07-31T05:58:42;6.10;;;3.37;;
4023;SDS011;2026;51.002;13.668;2023-07-31T06:03:46;4.20;;;2.63;;
4023;SDS011;2026;51.002;13.668;2023-07-31T06:08:49;4.33;;;2.70;;
4023;SDS011;2026;51.002;13.668;2023-07-31T06:13:52;5.07;;;2.90;;
4023;SDS011;2026;51.002;13.668;2023-07-31T06:18:56;4.80;;;3.17;;
4023;SDS011;2026;51.002;13.668;2023-07-31T06:23:59;6.63;;;2.97;;
4023;SDS011;2026;51.002;13.668;2023-07-31T06:29:02;4.50;;;2.67;;
4023;SDS011;2026;51.002;13.668;2023-07-31T06:34:06;5.13;;;2.80;;
4023;SDS011;2026;51.002;13.668;2023-07-31T06:39:09;7.77;;;3.50;;
4023;SDS011;2026;51.002;13.668;2023-07-31T06:44:11;7.03;;;2.50;;
4023;SDS011;2026;51.002;13.668;2023-07-31T06:49:16;4.10;;;2.93;;
4023;SDS011;2026;51.002;13.668;2023-07-31T06:54:18;3.90;;;2.50;;
4023;SDS011;2026;51.002;13.668;2023-07-31T06:59:21;4.70;;;2.73;;
4023;SDS011;2026;51.002;13.668;2023-07-31T07:04:25;4.70;;;2.67;;
4023;SDS011;2026;51.002;13.668;2023-07-31T07:09:28;3.00;;;2.57;;
4023;SDS011;2026;51.002;13.668;2023-07-31T07:14:31;7.30;;;3.10;;
4023;SDS011;2026;51.002;13.668;2023-07-31T07:19:35;5.50;;;2.80;;
4023;SDS011;2026;51.002;13.668;2023-07-31T07:24:38;5.57;;;2.97;;
4023;SDS011;2026;51.002;13.668;2023-07-31T07:29:40;5.07;;;2.80;;
4023;SDS011;2026;51.002;13.668;2023-07-31T07:34:44;4.63;;;2.90;;
4023;SDS011;2026;51.002;13.668;2023-07-31T07:39:47;5.30;;;3.17;;
4023;SDS011;2026;51.002;13.668;2023-07-31T07:44:50;4.17;;;3.13;;
4023;SDS011;2026;51.002;13.668;2023-07-31T07:49:54;6.30;;;3.40;;
4023;SDS011;2026;51.002;13.668;2023-07-31T07:54:57;5.27;;;2.90;;
4023;SDS011;2026;51.002;13.668;2023-07-31T07:59:59;5.13;;;3.40;;
4023;SDS011;2026;51.002;13.668;2023-07-31T08:05:23;6.77;;;3.30;;
4023;SDS011;2026;51.002;13.668;2023-07-31T08:10:26;4.43;;;3.03;;
4023;SDS011;2026;51.002;13.668;2023-07-31T08:15:29;6.37;;;3.10;;
4023;SDS011;2026;51.002;13.668;2023-07-31T08:20:33;6.10;;;2.90;;
4023;SDS011;2026;51.002;13.668;2023-07-31T08:25:36;5.77;;;2.63;;
4023;SDS011;2026;51.002;13.668;2023-07-31T08:30:39;3.87;;;3.00;;
4023;SDS011;2026;51.002;13.668;2023-07-31T08:35:44;5.47;;;2.50;;
4023;SDS011;2026;51.002;13.668;2023-07-31T08:40:47;3.73;;;2.67;;
4023;SDS011;2026;51.002;13.668;2023-07-31T08:45:49;3.90;;;3.00;;
4023;SDS011;2026;51.002;13.668;2023-07-31T08:50:54;5.57;;;2.60;;
4023;SDS011;2026;51.002;13.668;2023-07-31T08:55:57;7.60;;;2.97;;
4023;SDS011;2026;51.002;13.668;2023-07-31T09:01:01;5.37;;;3.20;;
4023;SDS011;2026;51.002;13.668;2023-07-31T09:06:07;7.70;;;3.30;;
4023;SDS011;2026;51.002;13.668;2023-07-31T09:11:10;4.50;;;2.60;;
4023;SDS011;2026;51.002;13.668;2023-07-31T09:16:13;2.70;;;2.40;;
4023;SDS011;2026;51.002;13.668;2023-07-31T09:21:17;4.93;;;2.90;;
4023;SDS011;2026;51.002;13.668;2023-07-31T09:26:29;5.63;;;2.90;;
4023;SDS011;2026;51.002;13.668;2023-07-31T09:31:33;5.50;;;2.70;;
4023;SDS011;2026;51.002;13.668;2023-07-31T09:36:41;5.70;;;3.27;;
4023;SDS011;2026;51.002;13.668;2023-07-31T09:41:44;3.90;;;2.70;;
4023;SDS011;2026;51.002;13.668;2023-07-31T09:46:47;5.50;;;3.00;;
4023;SDS011;2026;51.002;13.668;2023-07-31T09:51:52;6.53;;;2.80;;
4023;SDS011;2026;51.002;13.668;2023-07-31T09:56:55;3.93;;;3.50;;
4023;SDS011;2026;51.002;13.668;2023-07-31T10:01:59;4.43;;;3.20;;
4023;SDS011;2026;51.002;13.668;2023-07-31T10:07:03;8.20;;;3.77;;
4023;SDS011;2026;51.002;13.668;2023-07-31T10:12:06;4.43;;;2.90;;
4023;SDS011;2026;51.002;13.668;2023-07-31T10:17:12;4.67;;;2.90;;
4023;SDS011;2026;51.002;13.668;2023-07-31T10:22:18;5.53;;;2.90;;
4023;SDS011;2026;51.002;13.668;2023-07-31T10:27:21;4.23;;;3.00;;
4023;SDS011;2026;51.002;13.668;2023-07-31T10:32:24;3.90;;;2.80;;
4023;SDS011;2026;51.002;13.668;2023-07-31T10:37:29;5.73;;;3.00;;
4023;SDS011;2026;51.002;13.668;2023-07-31T10:42:32;2.97;;;2.60;;
4023;SDS011;2026;51.002;13.668;2023-07-31T10:47:39;8.30;;;2.97;;
4023;SDS011;2026;51.002;13.668;2023-07-31T10:52:47;3.50;;;2.80;;
4023;SDS011;2026;51.002;13.668;2023-07-31T10:57:51;3.70;;;2.30;;
4023;SDS011;2026;51.002;13.668;2023-07-31T11:02:59;3.90;;;2.80;;
4023;SDS011;2026;51.002;13.668;2023-07-31T11:08:09;3.70;;;3.00;;
4023;SDS011;2026;51.002;13.668;2023-07-31T11:13:12;3.27;;;2.40;;
4023;SDS011;2026;51.002;13.668;2023-07-31T11:18:15;2.60;;;2.30;;
4023;SDS011;2026;51.002;13.668;2023-07-31T11:23:19;3.10;;;2.23;;
4023;SDS011;2026;51.002;13.668;2023-07-31T11:28:22;4.17;;;2.50;;
4023;SDS011;2026;51.002;13.668;2023-07-31T11:33:25;5.27;;;3.00;;
4023;SDS011;2026;51.002;13.668;2023-07-31T11:38:30;4.23;;;2.73;;
4023;SDS011;2026;51.002;13.668;2023-07-31T11:43:33;3.70;;;2.47;;
4023;SDS011;2026;51.002;13.668;2023-07-31T11:48:39;2.97;;;2.47;;
4023;SDS011;2026;51.002;13.668;2023-07-31T11:53:44;2.70;;;1.90;;
4023;SDS011;2026;51.002;13.668;2023-07-31T11:58:49;3.60;;;2.47;;
4023;SDS011;2026;51.002;13.668;2023-07-31T12:03:51;2.67;;;2.23;;
4023;SDS011;2026;51.002;13.668;2023-07-31T12:09:01;2.67;;;2.20;;
4023;SDS011;2026;51.002;13.668;2023-07-31T12:14:04;5.23;;;2.20;;
4023;SDS011;2026;51.002;13.668;2023-07-31T12:19:07;4.27;;;2.77;;
4023;SDS011;2026;51.002;13.668;2023-07-31T12:24:11;2.90;;;2.23;;
4023;SDS011;2026;51.002;13.668;2023-07-31T12:29:14;3.23;;;2.63;;
4023;SDS011;2026;51.002;13.668;2023-07-31T12:34:17;2.63;;;2.23;;
4023;SDS011;2026;51.002;13.668;2023-07-31T12:39:21;3.50;;;2.60;;
4023;SDS011;2026;51.002;13.668;2023-07-31T12:44:24;2.80;;;2.47;;
4023;SDS011;2026;51.002;13.668;2023-07-31T12:49:27;3.33;;;2.28;;
4023;SDS011;2026;51.002;13.668;2023-07-31T12:54:31;3.50;;;2.60;;
4023;SDS011;2026;51.002;13.668;2023-07-31T12:59:34;3.63;;;2.43;;
4023;SDS011;2026;51.002;13.668;2023-07-31T13:04:37;2.75;;;2.25;;
4023;SDS011;2026;51.002;13.668;2023-07-31T13:09:41;4.33;;;3.03;;
4023;SDS011;2026;51.002;13.668;2023-07-31T13:14:44;4.67;;;2.70;;
4023;SDS011;2026;51.002;13.668;2023-07-31T13:19:47;3.37;;;2.60;;
4023;SDS011;2026;51.002;13.668;2023-07-31T13:24:51;2.90;;;2.40;;
4023;SDS011;2026;51.002;13.668;2023-07-31T13:29:53;2.40;;;2.20;;
4023;SDS011;2026;51.002;13.668;2023-07-31T13:34:56;3.63;;;2.37;;
4023;SDS011;2026;51.002;13.668;2023-07-31T13:40:01;3.77;;;2.50;;
4023;SDS011;2026;51.002;13.668;2023-07-31T13:45:06;5.73;;;2.33;;
4023;SDS011;2026;51.002;13.668;2023-07-31T13:50:09;3.13;;;2.30;;
4023;SDS011;2026;51.002;13.668;2023-07-31T13:55:13;3.70;;;2.33;;
4023;SDS011;2026;51.002;13.668;2023-07-31T14:00:16;3.63;;;2.50;;
4023;SDS011;2026;51.002;13.668;2023-07-31T14:05:19;6.47;;;2.63;;
4023;SDS011;2026;51.002;13.668;2023-07-31T14:10:23;5.10;;;2.67;;
4023;SDS011;2026;51.002;13.668;2023-07-31T14:15:26;4.22;;;2.92;;
4023;SDS011;2026;51.002;13.668;2023-07-31T14:20:29;3.40;;;2.77;;
4023;SDS011;2026;51.002;13.668;2023-07-31T14:25:33;4.97;;;2.47;;
4023;SDS011;2026;51.002;13.668;2023-07-31T14:30:36;2.90;;;2.60;;
4023;SDS011;2026;51.002;13.668;2023-07-31T14:35:39;9.13;;;3.10;;
4023;SDS011;2026;51.002;13.668;2023-07-31T14:40:43;2.70;;;2.50;;
4023;SDS011;2026;51.002;13.668;2023-07-31T14:45:46;3.23;;;2.53;;
4023;SDS011;2026;51.002;13.668;2023-07-31T14:50:48;5.43;;;2.77;;
4023;SDS011;2026;51.002;13.668;2023-07-31T14:55:53;4.53;;;2.63;;
4023;SDS011;2026;51.002;13.668;2023-07-31T15:00:56;3.35;;;2.70;;
4023;SDS011;2026;51.002;13.668;2023-07-31T15:05:59;4.33;;;2.57;;
4023;SDS011;2026;51.002;13.668;2023-07-31T15:11:03;6.65;;;2.92;;
4023;SDS011;2026;51.002;13.668;2023-07-31T15:16:05;2.97;;;2.50;;
4023;SDS011;2026;51.002;13.668;2023-07-31T15:21:08;3.00;;;2.70;;
4023;SDS011;2026;51.002;13.668;2023-07-31T15:26:12;2.70;;;2.40;;
4023;SDS011;2026;51.002;13.668;2023-07-31T15:31:16;3.50;;;2.63;;
4023;SDS011;2026;51.002;13.668;2023-07-31T15:36:18;4.57;;;2.80;;
4023;SDS011;2026;51.002;13.668;2023-07-31T15:41:22;8.93;;;5.30;;
4023;SDS011;2026;51.002;13.668;2023-07-31T15:46:26;3.17;;;2.60;;
4023;SDS011;2026;51.002;13.668;2023-07-31T15:56:33;3.37;;;2.73;;
4023;SDS011;2026;51.002;13.668;2023-07-31T16:01:36;4.40;;;3.00;;
4023;SDS011;2026;51.002;13.668;2023-07-31T16:06:39;3.40;;;2.63;;
4023;SDS011;2026;51.002;13.668;2023-07-31T16:11:44;4.67;;;3.00;;
4023;SDS011;2026;51.002;13.668;2023-07-31T16:16:48;3.10;;;2.20;;
4023;SDS011;2026;51.002;13.668;2023-07-31T16:21:54;5.53;;;2.80;;
4023;SDS011;2026;51.002;13.668;2023-07-31T16:26:58;3.53;;;2.53;;
4023;SDS011;2026;51.002;13.668;2023-07-31T16:32:01;3.20;;;2.60;;
4023;SDS011;2026;51.002;13.668;2023-07-31T16:37:04;7.60;;;2.73;;
4023;SDS011;2026;51.002;13.668;2023-07-31T16:42:08;5.33;;;2.87;;
4023;SDS011;2026;51.002;13.668;2023-07-31T16:47:11;4.70;;;2.90;;
4023;SDS011;2026;51.002;13.668;2023-07-31T16:52:14;4.17;;;3.40;;
4023;SDS011;2026;51.002;13.668;2023-07-31T16:57:19;4.93;;;3.17;;
4023;SDS011;2026;51.002;13.668;2023-07-31T17:02:23;4.90;;;2.90;;
4023;SDS011;2026;51.002;13.668;2023-07-31T17:07:26;6.00;;;3.20;;
4023;SDS011;2026;51.002;13.668;2023-07-31T17:12:31;4.87;;;2.80;;
4023;SDS011;2026;51.002;13.668;2023-07-31T17:17:34;4.67;;;3.10;;
4023;SDS011;2026;51.002;13.668;2023-07-31T17:22:37;4.77;;;2.70;;
4023;SDS011;2026;51.002;13.668;2023-07-31T17:27:50;4.00;;;3.00;;
4023;SDS011;2026;51.002;13.668;2023-07-31T17:32:55;7.30;;;3.10;;
4023;SDS011;2026;51.002;13.668;2023-07-31T17:37:58;8.97;;;3.63;;
4023;SDS011;2026;51.002;13.668;2023-07-31T17:43:02;4.27;;;2.70;;
4023;SDS011;2026;51.002;13.668;2023-07-31T17:48:05;4.70;;;3.30;;
4023;SDS011;2026;51.002;13.668;2023-07-31T17:53:10;6.17;;;3.00;;
4023;SDS011;2026;51.002;13.668;2023-07-31T17:58:14;3.80;;;3.00;;
4023;SDS011;2026;51.002;13.668;2023-07-31T18:03:17;4.97;;;3.00;;
4023;SDS011;2026;51.002;13.668;2023-07-31T18:08:22;6.40;;;3.50;;
4023;SDS011;2026;51.002;13.668;2023-07-31T18:13:27;7.33;;;3.20;;
4023;SDS011;2026;51.002;13.668;2023-07-31T18:18:30;4.60;;;3.20;;
4023;SDS011;2026;51.002;13.668;2023-07-31T18:23:33;5.20;;;3.37;;
4023;SDS011;2026;51.002;13.668;2023-07-31T18:28:37;6.40;;;3.63;;
4023;SDS011;2026;51.002;13.668;2023-07-31T18:33:40;5.47;;;3.03;;
4023;SDS011;2026;51.002;13.668;2023-07-31T18:38:43;3.40;;;2.60;;
4023;SDS011;2026;51.002;13.668;2023-07-31T18:43:48;4.63;;;3.17;;
4023;SDS011;2026;51.002;13.668;2023-07-31T18:48:50;4.83;;;3.47;;
4023;SDS011;2026;51.002;13.668;2023-07-31T18:53:53;4.57;;;3.20;;
4023;SDS011;2026;51.002;13.668;2023-07-31T18:58:58;6.20;;;3.83;;
4023;SDS011;2026;51.002;13.668;2023-07-31T19:04:02;5.63;;;2.87;;
4023;SDS011;2026;51.002;13.668;2023-07-31T19:09:06;8.10;;;3.37;;
4023;SDS011;2026;51.002;13.668;2023-07-31T19:14:10;7.67;;;3.70;;
4023;SDS011;2026;51.002;13.668;2023-07-31T19:19:14;5.97;;;4.10;;
4023;SDS011;2026;51.002;13.668;2023-07-31T19:24:17;5.07;;;3.50;;
4023;SDS011;2026;51.002;13.668;2023-07-31T19:29:22;12.23;;;3.27;;
4023;SDS011;2026;51.002;13.668;2023-07-31T19:34:26;5.40;;;3.10;;
4023;SDS011;2026;51.002;13.668;2023-07-31T19:39:29;4.77;;;2.80;;
4023;SDS011;2026;51.002;13.668;2023-07-31T19:44:34;8.43;;;4.13;;
4023;SDS011;2026;51.002;13.668;2023-07-31T19:49:36;5.70;;;3.57;;
4023;SDS011;2026;51.002;13.668;2023-07-31T19:54:39;8.40;;;3.30;;
4023;SDS011;2026;51.002;13.668;2023-07-31T19:59:44;6.50;;;3.40;;
4023;SDS011;2026;51.002;13.668;2023-07-31T20:04:47;6.90;;;3.40;;
4023;SDS011;2026;51.002;13.668;2023-07-31T20:09:50;6.00;;;3.43;;
4023;SDS011;2026;51.002;13.668;2023-07-31T20:15:00;5.57;;;3.33;;
4023;SDS011;2026;51.002;13.668;2023-07-31T20:20:04;6.60;;;3.23;;
4023;SDS011;2026;51.002;13.668;2023-07-31T20:25:08;5.20;;;3.43;;
4023;SDS011;2026;51.002;13.668;2023-07-31T20:30:13;6.43;;;3.30;;
4023;SDS011;2026;51.002;13.668;2023-07-31T20:35:16;6.10;;;3.10;;
4023;SDS011;2026;51.002;13.668;2023-07-31T20:40:19;5.90;;;3.67;;
4023;SDS011;2026;51.002;13.668;2023-07-31T20:45:24;5.77;;;3.40;;
4023;SDS011;2026;51.002;13.668;2023-07-31T20:50:28;6.63;;;3.70;;
4023;SDS011;2026;51.002;13.668;2023-07-31T20:55:33;4.90;;;3.60;;
4023;SDS011;2026;51.002;13.668;2023-07-31T21:00:37;4.63;;;3.30;;
4023;SDS011;2026;51.002;13.668;2023-07-31T21:05:48;8.20;;;3.53;;
4023;SDS011;2026;51.002;13.668;2023-07-31T21:10:51;7.40;;;3.17;;
4023;SDS011;2026;51.002;13.668;2023-07-31T21:15:57;4.37;;;2.90;;
4023;SDS011;2026;51.002;13.668;2023-07-31T21:21:01;7.90;;;3.90;;
4023;SDS011;2026;51.002;13.668;2023-07-31T21:26:04;6.20;;;3.20;;
4023;SDS011;2026;51.002;13.668;2023-07-31T21:31:11;5.37;;;3.60;;
4023;SDS011;2026;51.002;13.668;2023-07-31T21:36:15;5.33;;;3.50;;
4023;SDS011;2026;51.002;13.668;2023-07-31T21:41:18;3.87;;;3.10;;
4023;SDS011;2026;51.002;13.668;2023-07-31T21:46:23;7.80;;;3.43;;
4023;SDS011;2026;51.002;13.668;2023-07-31T21:51:26;9.93;;;4.03;;
4023;SDS011;2026;51.002;13.668;2023-07-31T21:56:29;7.20;;;3.37;;
4023;SDS011;2026;51.002;13.668;2023-07-31T22:01:33;5.40;;;3.40;;
4023;SDS011;2026;51.002;13.668;2023-07-31T22:06:36;4.40;;;3.57;;
4023;SDS011;2026;51.002;13.668;2023-07-31T22:11:40;4.70;;;3.20;;
4023;SDS011;2026;51.002;13.668;2023-07-31T22:16:44;7.23;;;3.63;;
4023;SDS011;2026;51.002;13.668;2023-07-31T22:21:47;3.60;;;2.73;;
4023;SDS011;2026;51.002;13.668;2023-07-31T22:26:51;5.27;;;3.33;;
4023;SDS011;2026;51.002;13.668;2023-07-31T22:31:55;4.90;;;3.50;;
4023;SDS011;2026;51.002;13.668;2023-07-31T22:36:58;4.50;;;3.23;;
4023;SDS011;2026;51.002;13.668;2023-07-31T22:42:01;6.53;;;3.37;;
4023;SDS011;2026;51.002;13.668;2023-07-31T22:47:05;5.73;;;3.13;;
4023;SDS011;2026;51.002;13.668;2023-07-31T22:52:08;7.23;;;3.60;;
4023;SDS011;2026;51.002;13.668;2023-07-31T22:57:11;6.00;;;3.30;;
4023;SDS011;2026;51.002;13.668;2023-07-31T23:02:16;6.40;;;3.60;;
4023;SDS011;2026;51.002;13.668;2023-07-31T23:07:19;9.30;;;3.80;;
4023;SDS011;2026;51.002;13.668;2023-07-31T23:12:22;5.23;;;4.10;;
4023;SDS011;2026;51.002;13.668;2023-07-31T23:17:26;7.13;;;4.17;;
4023;SDS011;2026;51.002;13.668;2023-07-31T23:22:29;5.00;;;3.63;;
4023;SDS011;2026;51.002;13.668;2023-07-31T23:27:32;8.37;;;4.30;;
4023;SDS011;2026;51.002;13.668;2023-07-31T23:32:37;4.50;;;3.50;;
4023;SDS011;2026;51.002;13.668;2023-07-31T23:37:40;7.53;;;4.13;;
4023;SDS011;2026;51.002;13.668;2023-07-31T23:42:43;4.63;;;3.60;;
4023;SDS011;2026;51.002;13.668;2023-07-31T23:47:47;7.17;;;3.90;;
4023;SDS011;2026;51.002;13.668;2023-07-31T23:52:50;5.00;;;4.17;;
4023;SDS011;2026;51.002;13.668;2023-07-31T23:57:53;9.27;;;4.10;;
